sensor_id;sensor_type;location;lat;lon;timestamp;temperature;humidity
21518;DHT22;61765;45.794;24.150;2023-03-31T00:00:55;15.20;60.40
21518;DHT22;61765;45.794;24.150;2023-03-31T00:09:02;15.20;62.20
21518;DHT22;61765;45.794;24.150;2023-03-31T00:17:10;14.70;63.60
21518;DHT22;61765;45.794;24.150;2023-03-31T00:25:16;14.60;64.20
21518;DHT22;61765;45.794;24.150;2023-03-31T00:33:24;14.50;65.70
21518;DHT22;61765;45.794;24.150;2023-03-31T00:41:31;14.40;65.80
21518;DHT22;61765;45.794;24.150;2023-03-31T00:49:41;14.40;67.90
21518;DHT22;61765;45.794;24.150;2023-03-31T00:57:51;14.10;69.40
21518;DHT22;61765;45.794;24.150;2023-03-31T01:06:02;13.80;70.60
21518;DHT22;61765;45.794;24.150;2023-03-31T01:14:11;13.90;73.50
21518;DHT22;61765;45.794;24.150;2023-03-31T01:39:55;13.70;73.80
21518;DHT22;61765;45.794;24.150;2023-03-31T01:48:10;13.90;74.90
21518;DHT22;61765;45.794;24.150;2023-03-31T01:56:26;13.60;74.40
21518;DHT22;61765;45.794;24.150;2023-03-31T02:04:38;13.30;75.90
21518;DHT22;61765;45.794;24.150;2023-03-31T02:12:48;13.30;76.70
21518;DHT22;61765;45.794;24.150;2023-03-31T02:20:54;13.50;77.20
21518;DHT22;61765;45.794;24.150;2023-03-31T02:29:05;13.00;77.90
21518;DHT22;61765;45.794;24.150;2023-03-31T02:37:11;13.30;77.90
21518;DHT22;61765;45.794;24.150;2023-03-31T02:45:46;13.30;77.50
21518;DHT22;61765;45.794;24.150;2023-03-31T02:54:02;13.00;78.50
21518;DHT22;61765;45.794;24.150;2023-03-31T03:02:36;12.60;80.50
21518;DHT22;61765;45.794;24.150;2023-03-31T03:10:58;12.30;81.70
21518;DHT22;61765;45.794;24.150;2023-03-31T03:19:09;12.40;81.70
21518;DHT22;61765;45.794;24.150;2023-03-31T03:27:14;12.10;82.50
21518;DHT22;61765;45.794;24.150;2023-03-31T03:35:23;12.30;84.20
21518;DHT22;61765;45.794;24.150;2023-03-31T03:43:29;12.00;84.20
21518;DHT22;61765;45.794;24.150;2023-03-31T03:51:37;12.20;83.50
21518;DHT22;61765;45.794;24.150;2023-03-31T03:59:43;12.60;84.50
21518;DHT22;61765;45.794;24.150;2023-03-31T04:07:51;11.80;87.50
21518;DHT22;61765;45.794;24.150;2023-03-31T04:15:56;11.60;88.70
21518;DHT22;61765;45.794;24.150;2023-03-31T04:24:05;11.20;89.30
21518;DHT22;61765;45.794;24.150;2023-03-31T04:32:13;11.20;89.10
21518;DHT22;61765;45.794;24.150;2023-03-31T04:40:25;11.10;88.60
21518;DHT22;61765;45.794;24.150;2023-03-31T04:48:31;11.60;87.30
21518;DHT22;61765;45.794;24.150;2023-03-31T04:56:39;11.60;86.50
21518;DHT22;61765;45.794;24.150;2023-03-31T05:04:44;11.90;85.60
21518;DHT22;61765;45.794;24.150;2023-03-31T05:12:53;11.20;88.20
21518;DHT22;61765;45.794;24.150;2023-03-31T05:21:08;11.30;88.80
21518;DHT22;61765;45.794;24.150;2023-03-31T05:29:16;11.60;88.10
21518;DHT22;61765;45.794;24.150;2023-03-31T05:37:22;11.90;87.50
21518;DHT22;61765;45.794;24.150;2023-03-31T05:45:31;12.00;87.90
21518;DHT22;61765;45.794;24.150;2023-03-31T05:53:36;12.00;89.80
21518;DHT22;61765;45.794;24.150;2023-03-31T06:01:46;11.90;89.50
21518;DHT22;61765;45.794;24.150;2023-03-31T06:09:51;11.70;90.00
21518;DHT22;61765;45.794;24.150;2023-03-31T06:17:59;12.00;89.30
21518;DHT22;61765;45.794;24.150;2023-03-31T06:26:07;12.60;88.60
21518;DHT22;61765;45.794;24.150;2023-03-31T06:34:16;12.30;88.30
21518;DHT22;61765;45.794;24.150;2023-03-31T06:42:22;12.60;87.30
21518;DHT22;61765;45.794;24.150;2023-03-31T06:50:30;12.90;86.70
21518;DHT22;61765;45.794;24.150;2023-03-31T06:58:36;12.90;86.20
21518;DHT22;61765;45.794;24.150;2023-03-31T07:06:44;13.40;85.70
21518;DHT22;61765;45.794;24.150;2023-03-31T07:14:50;13.20;85.90
21518;DHT22;61765;45.794;24.150;2023-03-31T07:22:58;13.70;85.40
21518;DHT22;61765;45.794;24.150;2023-03-31T07:31:10;13.80;84.90
21518;DHT22;61765;45.794;24.150;2023-03-31T07:39:18;13.60;85.90
21518;DHT22;61765;45.794;24.150;2023-03-31T07:47:24;13.90;84.80
21518;DHT22;61765;45.794;24.150;2023-03-31T07:55:32;13.70;85.50
21518;DHT22;61765;45.794;24.150;2023-03-31T08:03:37;13.80;85.60
21518;DHT22;61765;45.794;24.150;2023-03-31T08:11:46;14.10;85.60
21518;DHT22;61765;45.794;24.150;2023-03-31T08:19:51;14.30;85.40
21518;DHT22;61765;45.794;24.150;2023-03-31T08:27:59;14.40;86.00
21518;DHT22;61765;45.794;24.150;2023-03-31T08:36:06;14.30;88.20
21518;DHT22;61765;45.794;24.150;2023-03-31T23:46:00;14.60;83.80
21518;DHT22;61765;45.794;24.150;2023-03-31T23:54:08;14.80;84.60
